Impacts METAR Board INFO
IDs:

KEWR - Newark Intl, NJ, US

Updated at: 2145 UTC 12 Dec 2017
Potential Impact None Slight Moderate High
Time12/09Z 12/10Z 12/11Z 12/12Z 12/13Z 12/14Z 12/15Z 12/16Z 12/17Z 12/18Z 12/19Z 12/20Z 12/21Z
VIS10 10 10 10 10 10 10 10 10 10 10 10 10
CIG85 90 100 80 80 80 70 50 31 48 42 60 60
CoverOVCOVCOVCOVCOVCOVCOVCOVCOVCOVCOVCOVCBKN
FltCatVFRVFRVFRVFRVFRVFRVFRVFRVFRVFRVFRVFRVFR
WX---RA---------------RA-RA----
WDir160160160160160170180190240240260280300
WSpd6 7 7 9 8 10 6 8 11 12 10 8 11
WGst-- -- -- -- -- -- -- -- -- -- -- -- --
Raw hourly METARs
KEWR 120851Z 16006KT 10SM FEW033 BKN085 OVC130 06/01 A2979 RMK AO2 SLP088 T00610006 58038
KEWR 120951Z 16007KT 10SM -RA FEW033 BKN090 OVC130 07/02 A2975 RMK AO2 RAB46 PRESFR SLP073 P0000 T00670017
KEWR 121051Z 16007KT 10SM FEW033 BKN100 OVC140 07/03 A2971 RMK AO2 RAE0957 SLP060 P0000 T00720028
KEWR 121151Z 16009KT 10SM FEW025 SCT060 OVC080 08/03 A2966 RMK AO2 SLP044 60000 T00780033 10078 20039 58044
KEWR 121251Z 16008KT 10SM FEW015 SCT060 OVC080 08/03 A2964 RMK AO2 RAB26E49 SLP038 P0000 T00830033
KEWR 121351Z 17010KT 10SM FEW015 SCT060 OVC080 08/03 A2961 RMK AO2 SLP025 T00830033
KEWR 121451Z 18006KT 10SM FEW020 BKN070 BKN095 OVC130 09/04 A2957 RMK AO2 SLP013 VCSH 60000 T00940039 58031
KEWR 121551Z 19008KT 10SM FEW025 BKN050 BKN070 OVC130 10/04 A2954 RMK AO2 SLP003 T01000044
KEWR 121651Z 24011KT 10SM FEW025 BKN031 OVC050 08/03 A2950 RMK AO2 RAB1555E51 SLP988 P0000 T00830028
KEWR 121751Z 24012KT 10SM -RA FEW025 BKN048 OVC060 08/02 A2947 RMK AO2 RAB1655E10B49 SLP978 P0000 60000 T00830017 10100 20078 56035
KEWR 121851Z 26010KT 10SM -RA FEW025 BKN042 OVC055 07/02 A2945 RMK AO2 SLP972 P0000 T00720022
KEWR 121951Z 28008KT 10SM FEW020 BKN060 BKN090 OVC150 07/01 A2944 RMK AO2 RAE1855 SLP967 P0000 T00720011
KEWR 122051Z 30011KT 10SM FEW028 FEW035 BKN060 BKN150 OVC250 07/01 A2943 RMK AO2 SLP965 60000 T00670006 56014